Time;durP1;ratioP1;P1;durP2;ratioP2;P2;SDS_P1;SDS_P2;PMS_P1;PMS_P2;Temp;Humidity;BMP_temperature;BMP_pressure;BME280_temperature;BME280_humidity;BME280_pressure;Samples;Min_cycle;Max_cycle;Signal;HPM_P1;HPM_P2
2022/11/05 00:09:36;;;;;;;;;;;7.70;99.90;;;;;;6150402;23;19931;-77
2022/11/05 00:17:32;;;;;;;;;;;7.90;99.90;;;;;;6150125;23;19955;-76
2022/11/05 00:19:58;;;;;;;;;;;;;;;;;;6149480;23;19904;-77
2022/11/05 00:25:15;;;;;;;;;;;;;;;;;;6150338;23;19955;-77
2022/11/05 00:27:41;;;;;;;;;;;;;;;;;;6150143;23;19927;-76
2022/11/05 00:30:08;;;;;;;;;;;;;;;;;;6150281;23;20275;-76
2022/11/05 00:32:33;;;;;;;;;;;7.70;99.90;;;;;;6150100;23;19916;-76
2022/11/05 00:34:59;;;;;;;;;;;7.60;99.90;;;;;;6149633;23;20280;-76
2022/11/05 00:37:25;;;;;;;;;;;;;;;;;;6150065;23;19909;-76
2022/11/05 00:39:50;;;;;;;;;;;7.40;99.90;;;;;;6201999;23;20344;-76
2022/11/05 00:44:59;;;;;;;;;;;7.30;99.90;;;;;;6243058;23;19919;-76
2022/11/05 00:50:09;;;;;;;;;;;7.40;99.90;;;;;;6242567;23;20017;-76
2022/11/05 00:55:19;;;;;;;;;;;7.40;99.90;;;;;;6243136;23;20368;-78
2022/11/05 00:57:44;;;;;;;;;;;7.40;99.90;;;;;;6242889;23;19982;-79
2022/11/05 01:00:10;;;;;;;;;;;;;;;;;;6243529;23;19981;-78
2022/11/05 01:02:36;;;;;;;;;;;;;;;;;;6242688;23;19945;-78
2022/11/05 01:05:02;;;;;;;;;;;;;;;;;;6242541;23;19899;-78
2022/11/05 01:07:27;;;;;;;;;;;7.30;99.90;;;;;;6266270;22;19899;-78
2022/11/05 01:09:53;;;;;;;;;;;7.10;99.90;;;;;;6242636;23;19910;-78
2022/11/05 01:12:18;;;;;;;;;;;7.10;99.90;;;;;;6242810;23;19933;-78
2022/11/05 01:14:44;;;;;;;;;;;7.00;99.90;;;;;;6242440;23;19906;-78
2022/11/05 01:17:09;;;;;;;;;;;;;;;;;;6241148;23;19900;-78
2022/11/05 01:19:35;;;;;;;;;;;6.80;99.90;;;;;;6242124;23;19945;-78
2022/11/05 01:22:00;;;;;;;;;;;6.70;99.90;;;;;;6242589;23;19982;-79
2022/11/05 01:24:26;;;;;;;;;;;;;;;;;;6242389;23;20233;-78
2022/11/05 01:26:52;;;;;;;;;;;6.60;99.90;;;;;;6242554;23;20325;-78
2022/11/05 01:29:17;;;;;;;;;;;;;;;;;;6242018;23;19903;-78
2022/11/05 01:31:43;;;;;;;;;;;;;;;;;;6241927;23;19924;-78
2022/11/05 01:34:09;;;;;;;;;;;;;;;;;;6241879;23;19899;-79
2022/11/05 01:36:35;;;;;;;;;;;6.50;99.90;;;;;;6242366;23;19903;-78
2022/11/05 01:39:00;;;;;;;;;;;6.50;99.90;;;;;;6242231;23;19926;-78
2022/11/05 01:41:26;;;;;;;;;;;6.50;99.90;;;;;;6242366;22;19903;-78
2022/11/05 01:43:55;;;;;;;;;;;6.50;99.90;;;;;;6242301;23;20229;-78
2022/11/05 01:46:24;;;;;;;;;;;6.40;99.90;;;;;;6242446;22;19899;-78
2022/11/05 01:48:50;;;;;;;;;;;6.30;99.90;;;;;;6241846;23;19915;-79
2022/11/05 01:51:17;;;;;;;;;;;6.30;99.90;;;;;;6242208;22;19899;-76
2022/11/05 01:53:43;;;;;;;;;;;;;;;;;;6242010;22;20290;-76
2022/11/05 01:56:12;;;;;;;;;;;6.20;99.90;;;;;;6242334;23;19899;-76
2022/11/05 01:58:43;;;;;;;;;;;6.10;99.90;;;;;;6241898;23;19906;-76
2022/11/05 02:01:09;;;;;;;;;;;6.10;99.90;;;;;;6241982;22;19899;-76
2022/11/05 02:03:35;;;;;;;;;;;;;;;;;;6242308;22;19910;-76
2022/11/05 02:06:01;;;;;;;;;;;6.10;99.90;;;;;;6242141;23;19899;-76
2022/11/05 02:08:27;;;;;;;;;;;;;;;;;;6242160;22;20305;-76
2022/11/05 02:10:53;;;;;;;;;;;5.90;99.90;;;;;;6241987;23;19978;-77
2022/11/05 02:13:18;;;;;;;;;;;;;;;;;;6242395;22;19900;-77
2022/11/05 02:16:00;;;;;;;;;;;5.80;99.90;;;;;;6241500;23;19910;-76
2022/11/05 02:18:26;;;;;;;;;;;;;;;;;;6242105;22;19973;-77
2022/11/05 02:21:21;;;;;;;;;;;5.80;99.90;;;;;;6241971;23;19899;-76
2022/11/05 02:23:49;;;;;;;;;;;5.70;99.90;;;;;;6119618;23;19901;-76
2022/11/05 02:26:14;;;;;;;;;;;;;;;;;;6119965;23;20345;-76
2022/11/05 02:29:03;;;;;;;;;;;5.70;99.90;;;;;;6119197;23;19936;-76
2022/11/05 02:31:29;;;;;;;;;;;;;;;;;;6118995;23;19909;-76
2022/11/05 02:33:55;;;;;;;;;;;;;;;;;;6119554;23;19912;-76
2022/11/05 02:36:21;;;;;;;;;;;;;;;;;;6119327;23;19905;-76
2022/11/05 02:38:47;;;;;;;;;;;;;;;;;;6119615;23;20044;-76
2022/11/05 02:41:13;;;;;;;;;;;;;;;;;;6118951;23;19977;-76
2022/11/05 02:43:39;;;;;;;;;;;;;;;;;;6117856;23;19939;-76
2022/11/05 02:46:11;;;;;;;;;;;5.60;99.90;;;;;;6118431;23;19908;-76
2022/11/05 02:48:37;;;;;;;;;;;;;;;;;;6118615;23;20311;-76
2022/11/05 02:51:07;;;;;;;;;;;5.40;99.90;;;;;;6119657;23;19909;-77
2022/11/05 02:53:37;;;;;;;;;;;5.50;99.90;;;;;;6119319;23;19948;-76
2022/11/05 02:56:08;;;;;;;;;;;5.50;99.90;;;;;;6119623;23;19904;-76
2022/11/05 02:58:34;;;;;;;;;;;5.40;99.90;;;;;;6119524;23;19983;-76
2022/11/05 03:01:02;;;;;;;;;;;5.40;99.90;;;;;;6222809;23;19934;-76
2022/11/05 03:03:35;;;;;;;;;;;5.40;99.90;;;;;;6241865;22;20317;-76
2022/11/05 03:06:00;;;;;;;;;;;;;;;;;;6241634;22;19915;-76
2022/11/05 03:08:32;;;;;;;;;;;5.40;99.90;;;;;;6241416;23;19990;-76
2022/11/05 03:10:58;;;;;;;;;;;;;;;;;;6241845;23;20284;-76
2022/11/05 03:13:30;;;;;;;;;;;5.40;99.90;;;;;;6241703;23;19938;-76
2022/11/05 03:15:56;;;;;;;;;;;;;;;;;;6241860;23;19906;-76
2022/11/05 03:18:26;;;;;;;;;;;5.30;99.90;;;;;;6241582;23;20075;-76
2022/11/05 03:20:51;;;;;;;;;;;5.30;99.90;;;;;;6241654;22;19923;-76
2022/11/05 03:23:24;;;;;;;;;;;5.30;99.90;;;;;;6241598;23;19911;-76
2022/11/05 03:25:50;;;;;;;;;;;;;;;;;;6241777;22;19904;-77
2022/11/05 03:28:15;;;;;;;;;;;;;;;;;;6241342;23;19903;-76
2022/11/05 03:30:41;;;;;;;;;;;5.20;99.90;;;;;;6242306;23;19911;-77
2022/11/05 03:33:07;;;;;;;;;;;;;;;;;;6243697;22;19900;-76
2022/11/05 03:35:33;;;;;;;;;;;;;;;;;;6243555;23;19903;-76
2022/11/05 03:38:05;;;;;;;;;;;5.10;99.90;;;;;;6243437;23;19970;-77
2022/11/05 03:40:33;;;;;;;;;;;5.00;99.90;;;;;;6243634;22;19900;-77
2022/11/05 03:42:59;;;;;;;;;;;5.10;99.90;;;;;;6243193;22;19904;-77
2022/11/05 03:45:25;;;;;;;;;;;;;;;;;;6243684;22;19926;-77
2022/11/05 03:47:52;;;;;;;;;;;5.00;99.90;;;;;;6243284;23;19965;-77
2022/11/05 03:50:26;;;;;;;;;;;5.00;99.90;;;;;;6243416;22;19953;-77
2022/11/05 03:52:52;;;;;;;;;;;5.10;99.90;;;;;;6243837;22;19975;-77
2022/11/05 03:55:22;;;;;;;;;;;5.10;99.90;;;;;;6243275;22;19922;-77
2022/11/05 03:57:49;;;;;;;;;;;5.20;99.90;;;;;;6242529;22;19899;-77
2022/11/05 04:00:15;;;;;;;;;;;;;;;;;;6243469;22;19906;-77
2022/11/05 04:02:41;;;;;;;;;;;5.20;99.90;;;;;;6242980;22;19899;-77
2022/11/05 04:05:07;;;;;;;;;;;;;;;;;;6243279;23;20340;-76
2022/11/05 04:18:30;;;;;;;;;;;;;;;;;;6243419;23;19948;-77
2022/11/05 04:26:24;;;;;;;;;;;5.20;99.90;;;;;;6242694;23;19981;-77
2022/11/05 04:31:33;;;;;;;;;;;5.00;99.90;;;;;;6242857;23;19923;-77
2022/11/05 04:33:59;;;;;;;;;;;;;;;;;;6242885;23;20225;-77
2022/11/05 04:36:25;;;;;;;;;;;5.00;99.90;;;;;;6243123;23;19949;-77
2022/11/05 04:38:51;;;;;;;;;;;;;;;;;;6243022;22;20321;-76
2022/11/05 04:41:17;;;;;;;;;;;5.00;99.90;;;;;;6241831;23;19903;-77
2022/11/05 04:43:42;;;;;;;;;;;;;;;;;;6242877;22;20331;-77
2022/11/05 04:46:08;;;;;;;;;;;;;;;;;;6243174;23;19979;-76
2022/11/05 04:48:34;;;;;;;;;;;4.90;99.90;;;;;;6243237;23;20320;-77
2022/11/05 04:50:59;;;;;;;;;;;4.90;99.90;;;;;;6242515;23;19950;-76
2022/11/05 04:53:25;;;;;;;;;;;4.90;99.90;;;;;;6240966;23;19900;-77
2022/11/05 04:55:50;;;;;;;;;;;;;;;;;;6242348;23;19899;-78
2022/11/05 04:58:16;;;;;;;;;;;4.80;99.90;;;;;;6242946;23;19979;-79
2022/11/05 05:00:42;;;;;;;;;;;;;;;;;;6242711;23;19911;-77
2022/11/05 05:03:07;;;;;;;;;;;4.90;99.90;;;;;;6242698;23;19922;-77
2022/11/05 05:05:33;;;;;;;;;;;4.80;99.90;;;;;;6242631;23;19931;-77
2022/11/05 05:07:59;;;;;;;;;;;;;;;;;;6242491;23;19899;-77
2022/11/05 05:10:24;;;;;;;;;;;4.80;99.90;;;;;;6241910;23;20397;-77
2022/11/05 05:12:49;;;;;;;;;;;4.80;99.90;;;;;;6242583;23;19903;-77
2022/11/05 05:15:15;;;;;;;;;;;4.70;99.90;;;;;;6243095;23;19982;-76
2022/11/05 05:17:40;;;;;;;;;;;4.80;99.90;;;;;;6242358;23;19910;-77
2022/11/05 05:22:54;;;;;;;;;;;4.90;99.90;;;;;;6242643;23;20570;-77
2022/11/05 05:25:20;;;;;;;;;;;;;;;;;;6242304;22;19985;-77
2022/11/05 05:27:45;;;;;;;;;;;4.90;99.90;;;;;;6242379;23;19903;-76
2022/11/05 05:30:11;;;;;;;;;;;;;;;;;;6242558;22;19931;-76
2022/11/05 05:32:37;;;;;;;;;;;;;;;;;;6266154;22;19935;-75
2022/11/05 05:35:03;;;;;;;;;;;;;;;;;;6242699;23;19915;-76
2022/11/05 05:37:28;;;;;;;;;;;5.00;99.90;;;;;;6241857;23;19990;-77
2022/11/05 05:39:54;;;;;;;;;;;4.90;99.90;;;;;;6241294;23;19900;-77
2022/11/05 05:42:21;;;;;;;;;;;4.90;99.90;;;;;;6240840;23;19969;-77
2022/11/05 05:44:47;;;;;;;;;;;5.00;99.90;;;;;;6242231;22;19900;-77
2022/11/05 05:47:12;;;;;;;;;;;4.90;99.90;;;;;;6242674;23;19990;-77
2022/11/05 05:49:38;;;;;;;;;;;;;;;;;;6242004;22;19903;-77
2022/11/05 05:52:04;;;;;;;;;;;;;;;;;;6242872;23;19954;-77
2022/11/05 05:54:30;;;;;;;;;;;;;;;;;;6241503;23;19900;-77
2022/11/05 05:56:56;;;;;;;;;;;4.90;99.90;;;;;;6242203;23;19904;-77
2022/11/05 05:59:22;;;;;;;;;;;;;;;;;;6241928;22;20247;-77
2022/11/05 06:01:48;;;;;;;;;;;5.10;99.90;;;;;;6242320;23;19904;-77
2022/11/05 06:04:14;;;;;;;;;;;;;;;;;;6241633;23;19899;-77
2022/11/05 06:06:39;;;;;;;;;;;5.20;99.90;;;;;;6241732;23;19973;-77
2022/11/05 06:09:05;;;;;;;;;;;5.20;99.90;;;;;;6241749;23;19935;-77
2022/11/05 06:11:30;;;;;;;;;;;5.20;99.90;;;;;;6242336;23;19899;-77
2022/11/05 06:13:56;;;;;;;;;;;5.20;99.90;;;;;;6242362;23;19922;-77
2022/11/05 06:16:22;;;;;;;;;;;5.10;99.90;;;;;;6242304;22;19903;-77
2022/11/05 06:18:47;;;;;;;;;;;5.10;99.90;;;;;;6242363;22;20270;-77
2022/11/05 06:21:13;;;;;;;;;;;;;;;;;;6242254;23;19942;-77
2022/11/05 06:23:39;;;;;;;;;;;5.20;99.90;;;;;;6241212;23;19927;-76
2022/11/05 06:26:05;;;;;;;;;;;;;;;;;;6242247;22;19907;-77
2022/11/05 06:28:30;;;;;;;;;;;5.10;99.90;;;;;;6265804;22;19900;-77
2022/11/05 06:30:56;;;;;;;;;;;5.10;99.90;;;;;;6241780;23;19990;-76
2022/11/05 06:33:22;;;;;;;;;;;5.10;99.90;;;;;;6241876;23;19906;-76
2022/11/05 06:35:47;;;;;;;;;;;5.10;99.90;;;;;;6242061;22;19936;-76
2022/11/05 06:38:13;;;;;;;;;;;;;;;;;;6241554;23;19912;-76
2022/11/05 06:40:38;;;;;;;;;;;5.10;99.90;;;;;;6241593;23;19960;-77
2022/11/05 06:43:04;;;;;;;;;;;5.10;99.90;;;;;;6242139;23;19941;-77
2022/11/05 06:45:29;;;;;;;;;;;5.10;99.90;;;;;;6241828;23;19907;-77
2022/11/05 06:47:55;;;;;;;;;;;;;;;;;;6240858;23;19981;-77
2022/11/05 06:50:21;;;;;;;;;;;;;;;;;;6239679;22;20314;-77
2022/11/05 06:52:58;;;;;;;;;;;5.20;99.90;;;;;;6239033;23;19899;-76
2022/11/05 06:55:24;;;;;;;;;;;5.20;99.90;;;;;;6241356;22;19907;-77
2022/11/05 06:57:50;;;;;;;;;;;5.10;99.90;;;;;;6241671;22;19908;-77
2022/11/05 07:00:15;;;;;;;;;;;5.20;99.90;;;;;;6241876;23;19978;-77
2022/11/05 07:02:41;;;;;;;;;;;;;;;;;;6241358;22;19922;-77
2022/11/05 07:05:09;;;;;;;;;;;5.20;99.90;;;;;;6242422;23;19900;-77
2022/11/05 07:07:35;;;;;;;;;;;;;;;;;;6243223;22;20298;-77
2022/11/05 07:10:01;;;;;;;;;;;5.00;99.90;;;;;;6243847;23;20322;-78
2022/11/05 07:12:26;;;;;;;;;;;5.20;99.90;;;;;;6243549;23;19930;-77
2022/11/05 07:14:52;;;;;;;;;;;;;;;;;;6244138;23;19899;-77
2022/11/05 07:17:18;;;;;;;;;;;5.20;99.90;;;;;;6244017;23;20200;-79
2022/11/05 07:19:44;;;;;;;;;;;;;;;;;;6243681;23;20318;-79
2022/11/05 07:22:09;;;;;;;;;;;5.20;99.90;;;;;;6243540;23;20033;-79
2022/11/05 07:24:35;;;;;;;;;;;5.20;99.90;;;;;;6243998;23;20240;-78
2022/11/05 07:27:00;;;;;;;;;;;5.20;99.90;;;;;;6243712;23;20155;-78
2022/11/05 07:29:25;;;;;;;;;;;5.20;99.90;;;;;;6243341;23;20320;-77
2022/11/05 07:31:51;;;;;;;;;;;;;;;;;;6243765;23;19899;-78
2022/11/05 07:34:17;;;;;;;;;;;5.20;99.90;;;;;;6243900;23;19909;-77
2022/11/05 07:36:42;;;;;;;;;;;5.30;99.90;;;;;;6241247;23;19915;-77
2022/11/05 07:39:08;;;;;;;;;;;;;;;;;;6243726;23;20313;-77
2022/11/05 07:41:34;;;;;;;;;;;5.40;99.90;;;;;;6243466;22;19990;-77
2022/11/05 07:44:00;;;;;;;;;;;;;;;;;;6243714;22;20276;-77
2022/11/05 07:46:26;;;;;;;;;;;;;;;;;;6243416;23;19900;-77
2022/11/05 07:48:52;;;;;;;;;;;;;;;;;;6243662;23;19981;-77
2022/11/05 07:51:17;;;;;;;;;;;5.50;99.90;;;;;;6243157;23;19903;-77
2022/11/05 07:53:43;;;;;;;;;;;;;;;;;;6241824;23;19935;-77
2022/11/05 07:56:09;;;;;;;;;;;;;;;;;;6243717;23;19907;-77
2022/11/05 07:58:37;;;;;;;;;;;;;;;;;;6267399;22;19910;-78
2022/11/05 08:01:02;;;;;;;;;;;;;;;;;;6243659;22;19938;-77
2022/11/05 08:03:28;;;;;;;;;;;5.60;99.90;;;;;;6242779;23;19972;-78
2022/11/05 08:05:53;;;;;;;;;;;5.70;99.90;;;;;;6243422;23;19908;-78
2022/11/05 08:08:19;;;;;;;;;;;5.70;99.90;;;;;;6243653;23;19900;-78
2022/11/05 08:10:44;;;;;;;;;;;5.80;99.90;;;;;;6243165;22;19907;-78
2022/11/05 08:13:11;;;;;;;;;;;;;;;;;;6243627;22;19910;-78
2022/11/05 08:15:37;;;;;;;;;;;;;;;;;;6243058;22;19903;-77
2022/11/05 08:18:04;;;;;;;;;;;5.90;99.90;;;;;;6243521;22;19934;-77
2022/11/05 08:20:30;;;;;;;;;;;5.90;99.90;;;;;;6241796;23;19926;-77
2022/11/05 08:22:56;;;;;;;;;;;6.00;99.90;;;;;;6243709;22;20313;-77
2022/11/05 08:25:22;;;;;;;;;;;;;;;;;;6243374;22;19946;-77
2022/11/05 08:27:53;;;;;;;;;;;6.10;99.90;;;;;;6243323;23;19941;-74
2022/11/05 08:30:19;;;;;;;;;;;;;;;;;;6242965;22;19911;-74
2022/11/05 08:32:44;;;;;;;;;;;6.20;99.90;;;;;;6242411;23;19942;-75
2022/11/05 08:35:10;;;;;;;;;;;6.30;99.90;;;;;;6243097;23;19899;-75
2022/11/05 08:37:35;;;;;;;;;;;;;;;;;;6242826;23;20186;-75
2022/11/05 08:40:01;;;;;;;;;;;6.40;99.90;;;;;;6242722;23;19899;-75
2022/11/05 08:42:27;;;;;;;;;;;;;;;;;;6242602;23;19899;-76
2022/11/05 08:44:52;;;;;;;;;;;6.50;99.90;;;;;;6242771;23;20336;-75
2022/11/05 08:47:18;;;;;;;;;;;6.60;99.90;;;;;;6240539;23;19978;-75
2022/11/05 08:49:43;;;;;;;;;;;6.60;99.90;;;;;;6242650;23;19911;-75
2022/11/05 08:52:09;;;;;;;;;;;;;;;;;;6242995;23;19980;-75
2022/11/05 08:54:35;;;;;;;;;;;;;;;;;;6242596;23;19912;-75
2022/11/05 08:57:00;;;;;;;;;;;6.80;99.90;;;;;;6242661;23;20305;-75
2022/11/05 08:59:28;;;;;;;;;;;6.90;99.90;;;;;;6242354;23;19960;-75
2022/11/05 09:01:53;;;;;;;;;;;7.00;99.90;;;;;;6242314;22;20213;-76
2022/11/05 09:04:19;;;;;;;;;;;7.10;99.90;;;;;;6242678;23;19910;-75
2022/11/05 09:06:45;;;;;;;;;;;7.10;99.90;;;;;;6242444;22;19900;-75
2022/11/05 09:09:10;;;;;;;;;;;;;;;;;;6242457;22;19908;-75
2022/11/05 09:11:36;;;;;;;;;;;;;;;;;;6242426;23;19903;-75
2022/11/05 09:14:02;;;;;;;;;;;;;;;;;;6242142;23;19900;-76
2022/11/05 09:16:28;;;;;;;;;;;;;;;;;;6241440;23;19906;-76
2022/11/05 09:18:55;;;;;;;;;;;7.50;99.90;;;;;;6242408;22;19927;-76
2022/11/05 09:21:20;;;;;;;;;;;7.50;99.90;;;;;;6242314;22;20317;-75
2022/11/05 09:23:46;;;;;;;;;;;7.50;99.90;;;;;;6242705;22;19975;-75
2022/11/05 09:26:12;;;;;;;;;;;7.70;99.90;;;;;;6241024;23;19899;-76
2022/11/05 09:28:38;;;;;;;;;;;7.70;99.90;;;;;;6241402;23;19907;-76
2022/11/05 09:31:04;;;;;;;;;;;7.90;99.90;;;;;;6242235;22;19911;-76
2022/11/05 09:33:30;;;;;;;;;;;8.00;99.90;;;;;;6243199;22;19906;-75
2022/11/05 09:35:58;;;;;;;;;;;8.00;99.90;;;;;;6242964;23;19903;-76
2022/11/05 09:38:24;;;;;;;;;;;;;;;;;;6242123;22;20297;-77
2022/11/05 09:40:54;;;;;;;;;;;8.20;99.90;;;;;;6266064;22;19935;-75
2022/11/05 09:43:21;;;;;;;;;;;8.30;99.90;;;;;;6242280;22;19907;-75
2022/11/05 09:45:47;;;;;;;;;;;;;;;;;;6241828;22;19899;-76
2022/11/05 09:48:13;;;;;;;;;;;8.50;99.90;;;;;;6242532;23;19949;-76
2022/11/05 09:50:39;;;;;;;;;;;;;;;;;;6242000;22;20318;-76
2022/11/05 09:53:05;;;;;;;;;;;;;;;;;;6242268;23;19949;-76
2022/11/05 09:55:38;;;;;;;;;;;8.60;99.90;;;;;;6241912;23;20321;-76
2022/11/05 09:58:10;;;;;;;;;;;8.60;99.90;;;;;;6242217;22;19904;-76
2022/11/05 10:00:35;;;;;;;;;;;8.70;99.90;;;;;;6240985;22;19900;-75
2022/11/05 10:03:01;;;;;;;;;;;;;;;;;;6242016;23;19983;-75
2022/11/05 10:05:27;;;;;;;;;;;;;;;;;;6241754;23;19899;-75
2022/11/05 10:07:53;;;;;;;;;;;;;;;;;;6241744;23;19933;-74
2022/11/05 10:10:25;;;;;;;;;;;9.00;99.90;;;;;;6241602;23;19983;-76
2022/11/05 10:12:57;;;;;;;;;;;9.10;99.90;;;;;;6242117;22;19926;-76
2022/11/05 10:15:23;;;;;;;;;;;;;;;;;;6241294;22;20290;-76
2022/11/05 10:17:51;;;;;;;;;;;9.20;99.90;;;;;;6242175;23;19923;-75
2022/11/05 10:20:30;;;;;;;;;;;9.20;99.90;;;;;;6241819;22;19967;-76
2022/11/05 10:22:55;;;;;;;;;;;;;;;;;;6242174;22;19934;-75
2022/11/05 10:25:23;;;;;;;;;;;9.30;99.90;;;;;;6241864;23;19900;-73
2022/11/05 10:27:49;;;;;;;;;;;;;;;;;;6241673;22;19900;-74
2022/11/05 10:30:15;;;;;;;;;;;;;;;;;;6240739;22;19912;-74
2022/11/05 10:32:41;;;;;;;;;;;9.60;99.90;;;;;;6241979;23;19926;-75
2022/11/05 10:35:10;;;;;;;;;;;9.70;99.90;;;;;;6242232;22;20285;-76
2022/11/05 10:37:36;;;;;;;;;;;;;;;;;;6241919;22;19899;-75
2022/11/05 10:40:04;;;;;;;;;;;9.90;99.90;;;;;;6241847;23;20306;-75
2022/11/05 10:42:53;;;;;;;;;;;10.00;99.90;;;;;;6241632;22;19953;-75
2022/11/05 10:45:48;;;;;;;;;;;10.10;99.90;;;;;;6240688;23;19907;-75
2022/11/05 10:48:14;;;;;;;;;;;;;;;;;;6215724;22;19912;-75
2022/11/05 10:50:40;;;;;;;;;;;10.40;99.90;;;;;;6241734;23;19915;-75
2022/11/05 10:53:06;;;;;;;;;;;;;;;;;;6242027;22;19899;-76
2022/11/05 10:55:32;;;;;;;;;;;;;;;;;;6241605;22;19900;-75
2022/11/05 10:57:58;;;;;;;;;;;;;;;;;;6264818;22;20340;-75
2022/11/05 11:00:24;;;;;;;;;;;10.80;99.90;;;;;;6241567;23;20048;-75
2022/11/05 11:02:55;;;;;;;;;;;10.80;99.90;;;;;;6241290;22;20237;-75
2022/11/05 11:05:39;;;;;;;;;;;10.90;99.90;;;;;;6241813;22;20258;-75
2022/11/05 11:08:05;;;;;;;;;;;;;;;;;;6241945;22;19903;-75
2022/11/05 11:10:33;;;;;;;;;;;11.00;99.90;;;;;;6241262;23;20305;-76
2022/11/05 11:12:58;;;;;;;;;;;11.10;99.90;;;;;;6241399;22;19927;-76
2022/11/05 11:15:26;;;;;;;;;;;;;;;;;;6241529;23;19906;-76
2022/11/05 11:17:52;;;;;;;;;;;;;;;;;;6241760;22;19974;-76
2022/11/05 11:20:30;;;;;;;;;;;11.20;99.90;;;;;;6241888;22;19899;-76
2022/11/05 11:22:56;;;;;;;;;;;;;;;;;;6241672;22;19906;-76
2022/11/05 11:25:23;;;;;;;;;;;11.40;99.90;;;;;;6241688;23;19899;-76
2022/11/05 11:27:49;;;;;;;;;;;11.40;99.90;;;;;;6240994;22;19899;-76
2022/11/05 11:30:15;;;;;;;;;;;;;;;;;;6241179;22;19918;-76
2022/11/05 11:32:41;;;;;;;;;;;;;;;;;;6241485;23;19931;-76
2022/11/05 11:35:16;;;;;;;;;;;11.50;99.90;;;;;;6241606;23;20224;-76
2022/11/05 11:37:42;;;;;;;;;;;;;;;;;;6241121;22;19978;-76
2022/11/05 11:40:15;;;;;;;;;;;11.50;99.90;;;;;;6241430;23;19934;-76
2022/11/05 11:42:41;;;;;;;;;;;;;;;;;;6240666;22;20251;-76
2022/11/05 11:45:25;;;;;;;;;;;11.50;99.90;;;;;;6241774;23;19927;-76
2022/11/05 11:47:51;;;;;;;;;;;11.50;99.90;;;;;;6241554;23;20185;-76
2022/11/05 11:50:31;;;;;;;;;;;11.60;99.90;;;;;;6241411;23;19907;-76
2022/11/05 11:52:57;;;;;;;;;;;;;;;;;;6243338;23;19903;-76
2022/11/05 11:55:24;;;;;;;;;;;;;;;;;;6242392;23;19899;-76
2022/11/05 11:57:50;;;;;;;;;;;11.70;99.90;;;;;;6242688;22;20249;-76
2022/11/05 12:00:16;;;;;;;;;;;;;;;;;;6243276;22;19900;-76
2022/11/05 12:02:42;;;;;;;;;;;;;;;;;;6266836;22;19899;-77
2022/11/05 12:05:08;;;;;;;;;;;;;;;;;;6243565;23;19942;-76
2022/11/05 12:07:43;;;;;;;;;;;11.60;99.90;;;;;;6243141;23;19903;-76
2022/11/05 12:10:09;;;;;;;;;;;;;;;;;;6242715;22;19908;-77
2022/11/05 12:12:42;;;;;;;;;;;11.70;99.90;;;;;;6242433;23;19904;-77
2022/11/05 12:15:08;;;;;;;;;;;;;;;;;;6243195;22;19903;-77
2022/11/05 12:17:34;;;;;;;;;;;;;;;;;;6242856;23;19906;-77
2022/11/05 12:20:29;;;;;;;;;;;11.70;99.90;;;;;;6242917;23;20013;-77
2022/11/05 12:23:14;;;;;;;;;;;11.60;99.90;;;;;;6120265;23;20255;-77
2022/11/05 12:25:40;;;;;;;;;;;;;;;;;;6120183;23;19897;-74
2022/11/05 12:28:06;;;;;;;;;;;;;;;;;;6120853;23;19968;-77
2022/11/05 12:30:40;;;;;;;;;;;11.60;99.90;;;;;;6118922;23;20335;-76
2022/11/05 12:33:26;;;;;;;;;;;11.60;99.90;;;;;;6120738;23;20394;-77
2022/11/05 12:35:59;;;;;;;;;;;11.70;99.90;;;;;;6119902;23;20335;-77
2022/11/05 12:38:36;;;;;;;;;;;11.70;99.90;;;;;;6120440;23;19920;-77
2022/11/05 12:41:02;;;;;;;;;;;;;;;;;;6119725;23;19901;-77
2022/11/05 12:43:35;;;;;;;;;;;11.80;99.90;;;;;;6120051;23;19901;-77
2022/11/05 12:46:18;;;;;;;;;;;11.80;99.90;;;;;;6120246;23;19952;-77
2022/11/05 12:48:45;;;;;;;;;;;;;;;;;;6095102;23;19928;-76
2022/11/05 12:51:10;;;;;;;;;;;11.80;99.90;;;;;;6119846;23;19901;-77
2022/11/05 12:53:44;;;;;;;;;;;11.80;99.90;;;;;;6119558;23;19904;-76
2022/11/05 12:56:10;;;;;;;;;;;;;;;;;;6120385;23;19905;-78
2022/11/05 12:58:38;;;;;;;;;;;11.80;99.90;;;;;;6145383;23;19990;-77
2022/11/05 13:01:13;;;;;;;;;;;11.80;99.90;;;;;;6242783;22;20284;-77
2022/11/05 13:03:39;;;;;;;;;;;11.80;99.90;;;;;;6242163;22;19938;-78
2022/11/05 13:06:12;;;;;;;;;;;11.80;99.90;;;;;;6266927;22;19903;-75
2022/11/05 13:08:51;;;;;;;;;;;11.80;99.90;;;;;;6241986;22;19910;-77
2022/11/05 13:11:17;;;;;;;;;;;11.80;99.90;;;;;;6242889;22;19936;-76
2022/11/05 13:14:05;;;;;;;;;;;11.80;99.90;;;;;;6242178;23;19959;-76
2022/11/05 13:16:33;;;;;;;;;;;11.80;99.90;;;;;;6225981;23;19900;-76
2022/11/05 13:19:08;;;;;;;;;;;11.80;99.90;;;;;;6242319;22;19906;-76
2022/11/05 13:21:34;;;;;;;;;;;11.90;99.90;;;;;;6242517;22;19946;-77
2022/11/05 13:24:02;;;;;;;;;;;11.80;99.90;;;;;;6241477;22;19958;-77
2022/11/05 13:26:32;;;;;;;;;;;11.70;99.90;;;;;;6242319;22;20400;-77
2022/11/05 13:29:29;;;;;;;;;;;11.90;99.90;;;;;;6242642;22;19904;-77
2022/11/05 13:32:01;;;;;;;;;;;11.80;99.90;;;;;;6175360;22;20210;-77
2022/11/05 13:34:27;;;;;;;;;;;11.90;99.90;;;;;;6242250;22;19900;-77
2022/11/05 13:39:53;;;;;;;;;;;11.90;99.90;;;;;;6242005;23;19919;-76
2022/11/05 13:42:19;;;;;;;;;;;11.90;99.90;;;;;;6242425;22;19899;-76
2022/11/05 13:44:59;;;;;;;;;;;11.80;99.90;;;;;;6241760;23;19899;-77
2022/11/05 13:47:43;;;;;;;;;;;11.80;99.90;;;;;;6241821;23;20286;-77
2022/11/05 13:50:27;;;;;;;;;;;11.80;99.90;;;;;;6241532;23;19908;-78
2022/11/05 13:53:22;;;;;;;;;;;11.80;99.90;;;;;;6241470;23;19950;-78
2022/11/05 13:55:47;;;;;;;;;;;11.80;99.90;;;;;;6119241;23;19991;-78
2022/11/05 13:58:31;;;;;;;;;;;11.70;99.90;;;;;;6093523;23;20004;-77
2022/11/05 14:01:17;;;;;;;;;;;11.90;99.90;;;;;;6119172;23;20366;-78
2022/11/05 14:03:47;;;;;;;;;;;11.70;99.90;;;;;;6118381;23;19947;-78
2022/11/05 14:06:13;;;;;;;;;;;11.90;99.90;;;;;;6119115;23;20294;-78
2022/11/05 14:08:40;;;;;;;;;;;11.80;99.90;;;;;;6119025;23;19901;-77
2022/11/05 14:11:16;;;;;;;;;;;12.00;99.90;;;;;;6119797;23;19961;-76
2022/11/05 14:13:42;;;;;;;;;;;12.00;99.90;;;;;;6118902;23;19948;-78
2022/11/05 14:16:14;;;;;;;;;;;11.90;99.90;;;;;;6119059;23;20228;-78
2022/11/05 14:18:39;;;;;;;;;;;11.90;99.90;;;;;;6119071;23;19972;-78
2022/11/05 14:21:19;;;;;;;;;;;12.00;99.90;;;;;;6118930;23;20292;-78
2022/11/05 14:23:55;;;;;;;;;;;11.90;99.90;;;;;;6119272;23;19931;-78
2022/11/05 14:26:21;;;;;;;;;;;11.90;99.90;;;;;;6119358;23;19927;-77
2022/11/05 14:29:10;;;;;;;;;;;11.90;99.90;;;;;;6118797;23;20282;-77
2022/11/05 14:31:39;;;;;;;;;;;11.90;99.90;;;;;;6149190;23;19990;-78
2022/11/05 14:34:10;;;;;;;;;;;11.80;99.90;;;;;;6240759;22;20265;-77
2022/11/05 14:36:40;;;;;;;;;;;11.90;99.90;;;;;;6239404;23;19900;-77
2022/11/05 14:39:19;;;;;;;;;;;11.80;99.90;;;;;;6240795;22;20432;-77
2022/11/05 14:42:03;;;;;;;;;;;11.80;99.90;;;;;;6240198;22;19899;-77
2022/11/05 14:44:30;;;;;;;;;;;11.80;99.90;;;;;;6239977;22;20244;-77
2022/11/05 14:46:58;;;;;;;;;;;11.70;99.90;;;;;;6240371;22;20258;-77
2022/11/05 14:49:26;;;;;;;;;;;11.70;99.90;;;;;;6240202;22;19946;-77
2022/11/05 14:51:53;;;;;;;;;;;11.60;99.90;;;;;;6240339;22;19899;-77
2022/11/05 14:54:42;;;;;;;;;;;11.60;99.90;;;;;;6239417;22;19907;-78
2022/11/05 14:57:10;;;;;;;;;;;11.50;99.90;;;;;;6224114;22;20313;-78
2022/11/05 14:59:59;;;;;;;;;;;11.40;99.90;;;;;;6239639;22;20206;-77
2022/11/05 15:02:45;;;;;;;;;;;11.30;99.90;;;;;;6239517;22;19904;-77
2022/11/05 15:05:29;;;;;;;;;;;11.30;99.90;;;;;;6237982;23;19906;-77
2022/11/05 15:07:56;;;;;;;;;;;11.30;99.90;;;;;;6239327;23;19910;-77
2022/11/05 15:10:25;;;;;;;;;;;11.20;99.90;;;;;;6239109;22;20237;-76
2022/11/05 15:12:55;;;;;;;;;;;11.10;99.90;;;;;;6239176;22;19904;-77
2022/11/05 15:15:22;;;;;;;;;;;11.10;99.90;;;;;;6240064;22;19957;-76
2022/11/05 15:18:04;;;;;;;;;;;11.10;99.90;;;;;;6239645;22;20009;-77
2022/11/05 15:20:35;;;;;;;;;;;10.90;99.90;;;;;;6238660;22;20225;-81
2022/11/05 15:23:02;;;;;;;;;;;11.00;99.90;;;;;;6240553;22;19899;-78
2022/11/05 15:25:32;;;;;;;;;;;10.90;99.90;;;;;;6239996;22;20460;-78
2022/11/05 15:28:12;;;;;;;;;;;11.00;99.90;;;;;;6241617;22;19929;-78
2022/11/05 15:30:53;;;;;;;;;;;10.90;99.90;;;;;;6195079;22;1048559;-79
2022/11/05 15:33:19;;;;;;;;;;;10.90;99.90;;;;;;6242889;22;19991;-78
2022/11/05 15:35:45;;;;;;;;;;;10.90;99.90;;;;;;6241879;22;19907;-78
2022/11/05 15:38:27;;;;;;;;;;;10.80;99.90;;;;;;6242699;23;19900;-78
2022/11/05 15:40:56;;;;;;;;;;;10.80;99.90;;;;;;6242992;22;19900;-78
2022/11/05 15:43:21;;;;;;;;;;;10.80;99.90;;;;;;6243440;22;19922;-78
2022/11/05 15:46:17;;;;;;;;;;;10.70;99.90;;;;;;6242448;23;20270;-78
2022/11/05 15:48:48;;;;;;;;;;;10.70;99.90;;;;;;6215173;23;20193;-78
2022/11/05 15:51:14;;;;;;;;;;;10.70;99.90;;;;;;6243904;22;20309;-78
2022/11/05 15:53:42;;;;;;;;;;;10.70;99.90;;;;;;6243105;22;20369;-78
2022/11/05 15:56:28;;;;;;;;;;;10.70;99.90;;;;;;6243472;23;19906;-78
2022/11/05 15:59:04;;;;;;;;;;;10.70;99.90;;;;;;6243282;22;20631;-78
2022/11/05 16:01:31;;;;;;;;;;;10.70;99.90;;;;;;6242511;22;19906;-78
2022/11/05 16:04:17;;;;;;;;;;;10.70;99.90;;;;;;6240679;23;20328;-77